Obelix — 7JAX — position and weather

sailwx.info

Track history (hours):
 
Tides and Currents Weather Stations Pressure Air Temp Water Temp Dewpoint Dewpoint Depression Visibility Wind Speed Wind Dir Waves Ship Positions

Obelix

Last reported at 2018-Jun-22 09:28 UTC. Time now 2018-Jun-22 09:29 UTC.
Position N 35°08' E 139°46'.

Length 74 m; draft 4 m.

Type: Tanker. MMSI: 432528000.

Date/timePositionNaut miles runAvg speedWind from/ knotsBaromVisibWave heightAir tempDewpointWater temp
2018-Jun-22 09:28N 35°08' E 139°46'24611.3
2018-Jun-21 11:45N 33°49' E 135°04'312.8
2018-Jun-21 11:30N 33°51' E 135°01'611.6
2018-Jun-21 11:00N 33°57' E 134°59'611.7
2018-Jun-21 10:30N 34°03' E 134°59'611.8
2018-Jun-21 10:00N 34°08' E 134°59'612.1
2018-Jun-21 09:29N 34°15' E 134°59'612.0
2018-Jun-21 09:00N 34°20' E 134°59'612.0
2018-Jun-21 08:30N 34°26' E 135°01'612.0
2018-Jun-21 08:00N 34°32' E 135°03'5 9.4
2018-Jun-21 07:28N 34°37' E 135°01'510.9
2018-Jun-21 06:59N 34°37' E 134°54'511.3
2018-Jun-21 06:30N 34°40' E 134°49'4 8.2
2018-Jun-21 06:00N 34°44' E 134°48'0 0.0
2018-Jun-21 04:44N 34°44' E 134°48'0 0.0
2018-Jun-21 04:26N 34°44' E 134°48'0 0.0
2018-Jun-21 03:44N 34°44' E 134°48'0 0.0
2018-Jun-21 03:20N 34°44' E 134°48'0 0.0
2018-Jun-21 02:56N 34°44' E 134°48'0 0.0
2018-Jun-21 01:20N 34°44' E 134°48'0 0.0
2018-Jun-21 00:56N 34°44' E 134°48'0 0.0
2018-Jun-21 00:26N 34°44' E 134°48'0 0.0
2018-Jun-20 23:49N 34°44' E 134°48'1 0.3
2018-Jun-20 19:39N 34°43' E 134°47'0 0.1
2018-Jun-20 19:18N 34°43' E 134°47'0 0.0
2018-Jun-20 19:00N 34°43' E 134°47'0 0.0
2018-Jun-20 18:30N 34°43' E 134°47'0 0.0
2018-Jun-20 18:00N 34°43' E 134°47'0 0.0
2018-Jun-20 17:24N 34°43' E 134°47'0 0.0
2018-Jun-20 16:54N 34°43' E 134°47'0 0.0
2018-Jun-20 16:24N 34°43' E 134°47'0 0.0
2018-Jun-20 16:00N 34°43' E 134°47'0 0.0
2018-Jun-20 15:30N 34°43' E 134°47'0 0.0
2018-Jun-20 15:00N 34°43' E 134°47'0 0.0
2018-Jun-20 14:27N 34°43' E 134°47'0 0.0
2018-Jun-20 12:42N 34°43' E 134°47'0 0.0
2018-Jun-20 08:12N 34°43' E 134°47'0 0.2
2018-Jun-20 07:57N 34°43' E 134°47'0 0.0
2018-Jun-20 07:30N 34°43' E 134°47'0 0.1
2018-Jun-20 07:00N 34°43' E 134°47'4 8.4
2018-Jun-20 06:30N 34°39' E 134°50'711.8
2018-Jun-20 05:56N 34°38' E 134°58'613.1
2018-Jun-20 05:30N 34°36' E 135°04'612.2
2018-Jun-20 05:00N 34°30' E 135°04'612.9
2018-Jun-20 04:30N 34°23' E 135°02'612.6
2018-Jun-20 04:00N 34°17' E 134°59'612.6
2018-Jun-20 03:30N 34°11' E 134°60'612.5
2018-Jun-20 03:00N 34°05' E 134°60'612.4
2018-Jun-20 02:30N 33°59' E 135°00'612.5
2018-Jun-20 02:00N 33°52' E 135°01'712.9
2018-Jun-20 01:29N 33°47' E 135°06'24510.5
2018-Jun-19 02:03N 35°12' E 139°46'213.3
2018-Jun-19 01:56N 35°13' E 139°46'512.4
2018-Jun-19 01:30N 35°18' E 139°44'612.0
2018-Jun-19 01:00N 35°24' E 139°43'612.4
2018-Jun-19 00:31N 35°28' E 139°49'5 9.8
2018-Jun-19 00:00N 35°29' E 139°54'0 0.0
2018-Jun-18 09:21N 35°29' E 139°55'0 0.0
2018-Jun-18 08:51N 35°29' E 139°55'0 0.0
2018-Jun-18 08:29N 35°29' E 139°55'0 0.0
2018-Jun-18 06:17N 35°29' E 139°55'0 0.0
2018-Jun-18 06:00N 35°29' E 139°55'0 0.0
2018-Jun-18 05:16N 35°29' E 139°55'2 8.2
2018-Jun-18 05:00N 35°30' E 139°57'2 0.3
2018-Jun-17 23:05N 35°29' E 139°56'0 0.2
2018-Jun-17 22:23N 35°29' E 139°56'0 0.0
2018-Jun-17 21:47N 35°29' E 139°56'0 0.0
2018-Jun-17 18:08N 35°29' E 139°56'0 0.0
2018-Jun-17 17:44N 35°29' E 139°56'0 0.0
2018-Jun-17 14:38N 35°29' E 139°56'0 0.0
2018-Jun-17 14:26N 35°29' E 139°56'0 0.0
2018-Jun-17 11:44N 35°29' E 139°56'0 0.0
2018-Jun-17 10:29N 35°29' E 139°56'0 0.1
2018-Jun-17 09:41N 35°29' E 139°56'0 0.0
2018-Jun-17 09:29N 35°29' E 139°56'0 0.0
2018-Jun-17 08:59N 35°29' E 139°56'1 1.2
2018-Jun-17 08:20N 35°29' E 139°55'310.3
2018-Jun-17 08:00N 35°28' E 139°51'612.5
2018-Jun-17 07:30N 35°23' E 139°46'611.9
2018-Jun-17 07:00N 35°17' E 139°45'612.1
2018-Jun-17 06:30N 35°11' E 139°47'611.9
2018-Jun-17 05:57N 35°05' E 139°44'24411.0
2018-Jun-16 07:52N 33°49' E 135°03'412.4
2018-Jun-16 07:30N 33°53' E 135°00'612.7
2018-Jun-16 07:00N 33°59' E 134°59'613.0
2018-Jun-16 06:30N 34°06' E 134°59'713.9
2018-Jun-16 06:01N 34°12' E 134°58'815.3
2018-Jun-16 05:30N 34°20' E 134°59'713.2
2018-Jun-16 05:00N 34°27' E 135°01'612.7
2018-Jun-16 04:30N 34°33' E 135°03'6 9.9
2018-Jun-16 03:51N 34°36' E 134°57'513.3
2018-Jun-16 03:30N 34°39' E 134°51'510.2
2018-Jun-16 02:58N 34°43' E 134°47'0 0.0
2018-Jun-15 11:15N 34°43' E 134°47'0 0.0
2018-Jun-15 08:26N 34°43' E 134°47'1 0.2
2018-Jun-15 02:31N 34°44' E 134°48'0 0.0
2018-Jun-15 02:07N 34°44' E 134°48'0 0.5
2018-Jun-15 01:58N 34°44' E 134°48'2 1.9
2018-Jun-15 01:06N 34°42' E 134°47'0 0.1
2018-Jun-15 01:00N 34°42' E 134°47'0 0.1
2018-Jun-15 00:24N 34°42' E 134°47'0 0.0
2018-Jun-14 23:54N 34°42' E 134°47'0 0.0
2018-Jun-14 23:30N 34°42' E 134°47'0 0.0
2018-Jun-14 17:54N 34°42' E 134°47'0 0.0
2018-Jun-14 17:24N 34°42' E 134°47'2 5.8
2018-Jun-14 17:00N 34°40' E 134°48'5 9.3
2018-Jun-14 16:28N 34°38' E 134°54'510.1
2018-Jun-14 16:00N 34°38' E 134°59'611.1
2018-Jun-14 15:30N 34°36' E 135°06'611.8
2018-Jun-14 15:00N 34°30' E 135°04'612.1
2018-Jun-14 14:30N 34°24' E 135°03'611.9
2018-Jun-14 14:00N 34°18' E 135°00'612.5
2018-Jun-14 13:30N 34°12' E 134°59'612.7
2018-Jun-14 13:00N 34°06' E 135°01'612.8
2018-Jun-14 12:30N 33°60' E 135°02'612.2
2018-Jun-14 12:00N 33°53' E 135°01'811.4
2018-Jun-14 11:18N 33°47' E 135°06'24410.7
2018-Jun-13 12:25N 35°10' E 139°44'512.4
2018-Jun-13 11:59N 35°15' E 139°46'612.9
2018-Jun-13 11:31N 35°20' E 139°42'611.3
2018-Jun-13 11:00N 35°25' E 139°44'612.2
2018-Jun-13 10:30N 35°29' E 139°50'611.5
2018-Jun-13 10:00N 35°31' E 139°57'2 0.3
2018-Jun-13 04:08N 35°30' E 139°56'212.7
2018-Jun-13 04:00N 35°29' E 139°54'612.6
2018-Jun-13 03:30N 35°25' E 139°48'612.7
2018-Jun-13 03:00N 35°20' E 139°44'611.8
2018-Jun-13 02:30N 35°14' E 139°47'611.6
2018-Jun-13 01:57N 35°08' E 139°45'  
Track history (hours):
 
Tides and Currents Weather Stations Pressure Air Temp Water Temp Dewpoint Dewpoint Depression Visibility Wind Speed Wind Dir Waves Ship Positions

Obelix

Last reported at 2018-Jun-22 09:28 UTC. Time now 2018-Jun-22 09:29 UTC.
Position N 35°08' E 139°46'.

Length 74 m; draft 4 m.

Type: Tanker. MMSI: 432528000.

Date/timePositionNaut miles runAvg speedWind from/ knotsBaromVisibWave heightAir tempDewpointWater temp
2018-Jun-22 09:28N 35°08' E 139°46'24611.3
2018-Jun-21 11:45N 33°49' E 135°04'312.8
2018-Jun-21 11:30N 33°51' E 135°01'611.6
2018-Jun-21 11:00N 33°57' E 134°59'611.7
2018-Jun-21 10:30N 34°03' E 134°59'611.8
2018-Jun-21 10:00N 34°08' E 134°59'612.1
2018-Jun-21 09:29N 34°15' E 134°59'612.0
2018-Jun-21 09:00N 34°20' E 134°59'612.0
2018-Jun-21 08:30N 34°26' E 135°01'612.0
2018-Jun-21 08:00N 34°32' E 135°03'5 9.4
2018-Jun-21 07:28N 34°37' E 135°01'510.9
2018-Jun-21 06:59N 34°37' E 134°54'511.3
2018-Jun-21 06:30N 34°40' E 134°49'4 8.2
2018-Jun-21 06:00N 34°44' E 134°48'0 0.0
2018-Jun-21 04:44N 34°44' E 134°48'0 0.0
2018-Jun-21 04:26N 34°44' E 134°48'0 0.0
2018-Jun-21 03:44N 34°44' E 134°48'0 0.0
2018-Jun-21 03:20N 34°44' E 134°48'0 0.0
2018-Jun-21 02:56N 34°44' E 134°48'0 0.0
2018-Jun-21 01:20N 34°44' E 134°48'0 0.0
2018-Jun-21 00:56N 34°44' E 134°48'0 0.0
2018-Jun-21 00:26N 34°44' E 134°48'0 0.0
2018-Jun-20 23:49N 34°44' E 134°48'1 0.3
2018-Jun-20 19:39N 34°43' E 134°47'0 0.1
2018-Jun-20 19:18N 34°43' E 134°47'0 0.0
2018-Jun-20 19:00N 34°43' E 134°47'0 0.0
2018-Jun-20 18:30N 34°43' E 134°47'0 0.0
2018-Jun-20 18:00N 34°43' E 134°47'0 0.0
2018-Jun-20 17:24N 34°43' E 134°47'0 0.0
2018-Jun-20 16:54N 34°43' E 134°47'0 0.0
2018-Jun-20 16:24N 34°43' E 134°47'0 0.0
2018-Jun-20 16:00N 34°43' E 134°47'0 0.0
2018-Jun-20 15:30N 34°43' E 134°47'0 0.0
2018-Jun-20 15:00N 34°43' E 134°47'0 0.0
2018-Jun-20 14:27N 34°43' E 134°47'0 0.0
2018-Jun-20 12:42N 34°43' E 134°47'0 0.0
2018-Jun-20 08:12N 34°43' E 134°47'0 0.2
2018-Jun-20 07:57N 34°43' E 134°47'0 0.0
2018-Jun-20 07:30N 34°43' E 134°47'0 0.1
2018-Jun-20 07:00N 34°43' E 134°47'4 8.4
2018-Jun-20 06:30N 34°39' E 134°50'711.8
2018-Jun-20 05:56N 34°38' E 134°58'613.1
2018-Jun-20 05:30N 34°36' E 135°04'612.2
2018-Jun-20 05:00N 34°30' E 135°04'612.9
2018-Jun-20 04:30N 34°23' E 135°02'612.6
2018-Jun-20 04:00N 34°17' E 134°59'612.6
2018-Jun-20 03:30N 34°11' E 134°60'612.5
2018-Jun-20 03:00N 34°05' E 134°60'612.4
2018-Jun-20 02:30N 33°59' E 135°00'612.5
2018-Jun-20 02:00N 33°52' E 135°01'712.9
2018-Jun-20 01:29N 33°47' E 135°06'24510.5
2018-Jun-19 02:03N 35°12' E 139°46'213.3
2018-Jun-19 01:56N 35°13' E 139°46'512.4
2018-Jun-19 01:30N 35°18' E 139°44'612.0
2018-Jun-19 01:00N 35°24' E 139°43'612.4
2018-Jun-19 00:31N 35°28' E 139°49'5 9.8
2018-Jun-19 00:00N 35°29' E 139°54'0 0.0
2018-Jun-18 09:21N 35°29' E 139°55'0 0.0
2018-Jun-18 08:51N 35°29' E 139°55'0 0.0
2018-Jun-18 08:29N 35°29' E 139°55'0 0.0
2018-Jun-18 06:17N 35°29' E 139°55'0 0.0
2018-Jun-18 06:00N 35°29' E 139°55'0 0.0
2018-Jun-18 05:16N 35°29' E 139°55'2 8.2
2018-Jun-18 05:00N 35°30' E 139°57'2 0.3
2018-Jun-17 23:05N 35°29' E 139°56'0 0.2
2018-Jun-17 22:23N 35°29' E 139°56'0 0.0
2018-Jun-17 21:47N 35°29' E 139°56'0 0.0
2018-Jun-17 18:08N 35°29' E 139°56'0 0.0
2018-Jun-17 17:44N 35°29' E 139°56'0 0.0
2018-Jun-17 14:38N 35°29' E 139°56'0 0.0
2018-Jun-17 14:26N 35°29' E 139°56'0 0.0
2018-Jun-17 11:44N 35°29' E 139°56'0 0.0
2018-Jun-17 10:29N 35°29' E 139°56'0 0.1
2018-Jun-17 09:41N 35°29' E 139°56'0 0.0
2018-Jun-17 09:29N 35°29' E 139°56'0 0.0
2018-Jun-17 08:59N 35°29' E 139°56'1 1.2
2018-Jun-17 08:20N 35°29' E 139°55'310.3
2018-Jun-17 08:00N 35°28' E 139°51'612.5
2018-Jun-17 07:30N 35°23' E 139°46'611.9
2018-Jun-17 07:00N 35°17' E 139°45'612.1
2018-Jun-17 06:30N 35°11' E 139°47'611.9
2018-Jun-17 05:57N 35°05' E 139°44'24411.0
2018-Jun-16 07:52N 33°49' E 135°03'412.4
2018-Jun-16 07:30N 33°53' E 135°00'612.7
2018-Jun-16 07:00N 33°59' E 134°59'613.0
2018-Jun-16 06:30N 34°06' E 134°59'713.9
2018-Jun-16 06:01N 34°12' E 134°58'815.3
2018-Jun-16 05:30N 34°20' E 134°59'713.2
2018-Jun-16 05:00N 34°27' E 135°01'612.7
2018-Jun-16 04:30N 34°33' E 135°03'6 9.9
2018-Jun-16 03:51N 34°36' E 134°57'513.3
2018-Jun-16 03:30N 34°39' E 134°51'510.2
2018-Jun-16 02:58N 34°43' E 134°47'0 0.0
2018-Jun-15 11:15N 34°43' E 134°47'0 0.0
2018-Jun-15 08:26N 34°43' E 134°47'1 0.2
2018-Jun-15 02:31N 34°44' E 134°48'0 0.0
2018-Jun-15 02:07N 34°44' E 134°48'0 0.5
2018-Jun-15 01:58N 34°44' E 134°48'2 1.9
2018-Jun-15 01:06N 34°42' E 134°47'0 0.1
2018-Jun-15 01:00N 34°42' E 134°47'0 0.1
2018-Jun-15 00:24N 34°42' E 134°47'0 0.0
2018-Jun-14 23:54N 34°42' E 134°47'0 0.0
2018-Jun-14 23:30N 34°42' E 134°47'0 0.0
2018-Jun-14 17:54N 34°42' E 134°47'0 0.0
2018-Jun-14 17:24N 34°42' E 134°47'2 5.8
2018-Jun-14 17:00N 34°40' E 134°48'5 9.3
2018-Jun-14 16:28N 34°38' E 134°54'510.1
2018-Jun-14 16:00N 34°38' E 134°59'611.1
2018-Jun-14 15:30N 34°36' E 135°06'611.8
2018-Jun-14 15:00N 34°30' E 135°04'612.1
2018-Jun-14 14:30N 34°24' E 135°03'611.9
2018-Jun-14 14:00N 34°18' E 135°00'612.5
2018-Jun-14 13:30N 34°12' E 134°59'612.7
2018-Jun-14 13:00N 34°06' E 135°01'612.8
2018-Jun-14 12:30N 33°60' E 135°02'612.2
2018-Jun-14 12:00N 33°53' E 135°01'811.4
2018-Jun-14 11:18N 33°47' E 135°06'24410.7
2018-Jun-13 12:25N 35°10' E 139°44'512.4
2018-Jun-13 11:59N 35°15' E 139°46'612.9
2018-Jun-13 11:31N 35°20' E 139°42'611.3
2018-Jun-13 11:00N 35°25' E 139°44'612.2
2018-Jun-13 10:30N 35°29' E 139°50'611.5
2018-Jun-13 10:00N 35°31' E 139°57'2 0.3
2018-Jun-13 04:08N 35°30' E 139°56'212.7
2018-Jun-13 04:00N 35°29' E 139°54'612.6
2018-Jun-13 03:30N 35°25' E 139°48'612.7
2018-Jun-13 03:00N 35°20' E 139°44'611.8
2018-Jun-13 02:30N 35°14' E 139°47'611.6
2018-Jun-13 01:57N 35°08' E 139°45'  

Dump ship's entire track history